Time;durP1;ratioP1;P1;durP2;ratioP2;P2;SDS_P1;SDS_P2;PMS_P1;PMS_P2;Temp;Humidity;BMP_temperature;BMP_pressure;BME280_temperature;BME280_humidity;BME280_pressure;Samples;Min_cycle;Max_cycle;Signal;HPM_P1;HPM_P2
2023/08/02 00:01:14;;;;;;;2.38;0.90;;;17.90;99.90;;;18.21;100.00;99735.91;5181169;28;20045;-51
2023/08/02 00:03:46;;;;;;;2.33;1.10;;;17.90;99.90;;;18.21;100.00;99734.16;5180959;28;20074;-51
2023/08/02 00:06:19;;;;;;;1.65;0.98;;;17.90;99.90;;;18.20;100.00;99739.44;5180875;28;20046;-49
2023/08/02 00:08:53;;;;;;;1.67;0.90;;;17.90;99.90;;;18.16;100.00;99728.91;5180811;28;20049;-51
2023/08/02 00:11:28;;;;;;;2.05;0.95;;;17.80;99.90;;;18.14;100.00;99725.44;5180773;28;20519;-49
2023/08/02 00:14:00;;;;;;;2.35;1.00;;;17.80;99.90;;;18.12;100.00;99721.06;5180759;28;20389;-50
2023/08/02 00:16:33;;;;;;;1.92;1.20;;;17.80;99.90;;;18.12;100.00;99719.28;5180804;28;20053;-52
2023/08/02 00:19:05;;;;;;;1.70;1.02;;;17.80;99.90;;;18.10;100.00;99718.44;5186776;28;20049;-51
2023/08/02 00:21:38;;;;;;;3.60;1.10;;;17.80;99.90;;;18.08;100.00;99720.25;5200932;28;20454;-51
2023/08/02 00:24:12;;;;;;;1.75;0.90;;;17.80;99.90;;;18.06;100.00;99711.50;5186042;28;20041;-50
2023/08/02 00:26:44;;;;;;;1.77;1.00;;;17.80;99.90;;;18.07;100.00;99710.59;5200257;28;20052;-49
2023/08/02 00:29:20;;;;;;;2.08;1.00;;;17.80;99.90;;;18.06;100.00;99706.22;5201388;28;20057;-50
2023/08/02 00:31:52;;;;;;;1.88;1.00;;;17.70;99.90;;;18.04;100.00;99709.75;5193113;28;20053;-49
2023/08/02 00:34:25;;;;;;;2.17;1.00;;;17.70;99.90;;;18.03;100.00;99700.97;5200866;28;20530;-50
2023/08/02 00:36:57;;;;;;;2.63;1.02;;;17.80;99.90;;;18.02;100.00;99712.41;5200743;28;20049;-52
2023/08/02 00:39:31;;;;;;;2.17;1.02;;;17.80;99.90;;;18.01;100.00;99718.56;5200753;28;20069;-49
2023/08/02 00:42:04;;;;;;;4.13;1.20;;;17.70;99.90;;;18.01;100.00;99717.72;5200928;28;20053;-49
2023/08/02 00:44:36;;;;;;;1.80;0.95;;;17.70;99.90;;;18.01;100.00;99713.31;5201079;28;20049;-49
2023/08/02 00:47:11;;;;;;;2.65;1.42;;;17.70;99.90;;;18.02;100.00;99704.50;5200842;28;20052;-49
2023/08/02 00:49:45;;;;;;;2.80;1.15;;;17.70;99.90;;;17.99;100.00;99691.34;5181558;28;20518;-50
2023/08/02 00:52:18;;;;;;;3.05;1.25;;;17.70;99.90;;;17.98;100.00;99691.38;5180612;28;20057;-50
2023/08/02 00:54:52;;;;;;;2.35;1.10;;;17.70;99.90;;;17.95;100.00;99670.31;5180464;28;20049;-51
2023/08/02 00:57:24;;;;;;;3.15;1.05;;;17.60;99.90;;;17.92;100.00;99676.50;5180806;28;20050;-51
2023/08/02 00:59:57;;;;;;;3.80;1.08;;;17.70;99.90;;;17.92;100.00;99684.41;5180802;28;20060;-51
2023/08/02 01:02:29;;;;;;;1.65;1.25;;;17.60;99.90;;;17.90;100.00;99688.81;5183860;28;20057;-49
2023/08/02 01:05:02;;;;;;;1.35;1.00;;;17.60;99.90;;;17.90;100.00;99683.56;5183600;28;20050;-49
2023/08/02 01:07:41;;;;;;;1.63;1.05;;;17.60;99.90;;;17.92;100.00;99675.63;5183860;28;20060;-51
2023/08/02 01:10:25;;;;;;;1.73;1.00;;;17.60;99.90;;;17.89;100.00;99672.13;5184050;28;20046;-50
2023/08/02 01:13:00;;;;;;;1.75;0.80;;;17.60;99.90;;;17.86;100.00;99666.03;5183819;28;20137;-49
2023/08/02 01:15:35;;;;;;;1.20;0.90;;;17.60;99.90;;;17.83;100.00;99658.16;5183718;28;20110;-50
2023/08/02 01:18:09;;;;;;;2.30;1.30;;;17.60;99.90;;;17.79;100.00;99653.81;5184107;28;20038;-49
2023/08/02 01:20:43;;;;;;;3.90;1.10;;;17.60;99.90;;;17.81;100.00;99646.78;5183701;28;20828;-50
2023/08/02 01:23:18;;;;;;;1.98;0.93;;;17.60;99.90;;;17.78;100.00;99647.66;5183684;28;20054;-51
2023/08/02 01:25:52;;;;;;;2.92;1.10;;;17.60;99.90;;;17.78;100.00;99636.25;5195425;28;20136;-51
2023/08/02 01:28:27;;;;;;;2.40;1.02;;;17.60;99.90;;;17.79;100.00;99640.63;5204085;28;20243;-50
2023/08/02 01:31:01;;;;;;;2.25;1.08;;;17.50;99.90;;;17.77;100.00;99631.88;5183202;28;20050;-50
2023/08/02 01:33:49;;;;;;;2.17;1.00;;;17.50;99.90;;;17.78;100.00;99637.13;5183162;28;20598;-50
2023/08/02 01:36:24;;;;;;;2.10;1.23;;;17.50;99.90;;;17.80;100.00;99634.47;5199212;28;20045;-50
2023/08/02 01:38:56;;;;;;;2.42;1.60;;;17.50;99.90;;;17.83;100.00;99629.16;5199502;28;20056;-49
2023/08/02 01:41:28;;;;;;;1.27;0.93;;;17.50;99.90;;;17.86;100.00;99629.13;5183306;28;20050;-49
2023/08/02 01:44:01;;;;;;;2.05;1.05;;;17.60;99.90;;;17.89;100.00;99634.38;5183516;28;20049;-50
2023/08/02 01:46:33;;;;;;;1.73;1.13;;;17.60;99.90;;;17.90;100.00;99641.38;5183451;28;20092;-51
2023/08/02 01:49:06;;;;;;;2.83;1.20;;;17.60;99.90;;;17.94;100.00;99637.81;5196938;28;20053;-51
2023/08/02 01:51:43;;;;;;;1.85;0.90;;;17.70;99.90;;;17.95;100.00;99641.31;5185904;28;20041;-50
2023/08/02 01:54:15;;;;;;;2.35;0.90;;;17.70;99.90;;;17.94;100.00;99643.09;5183101;28;20407;-52
2023/08/02 01:56:47;;;;;;;1.90;1.13;;;17.70;99.90;;;17.96;100.00;99640.44;5183269;28;20046;-49
2023/08/02 01:59:20;;;;;;;3.35;1.30;;;17.70;99.90;;;17.98;100.00;99634.22;5183016;28;20559;-50
2023/08/02 02:01:54;;;;;;;2.10;1.38;;;17.70;99.90;;;18.00;100.00;99627.19;5182953;28;20045;-51
2023/08/02 02:04:26;;;;;;;2.25;1.23;;;17.70;99.90;;;18.02;100.00;99614.84;5183054;28;20137;-50
2023/08/02 02:07:01;;;;;;;3.00;1.20;;;17.70;99.90;;;18.04;100.00;99617.47;5183071;28;20077;-49
2023/08/02 02:09:33;;;;;;;3.85;1.20;;;17.70;99.90;;;18.09;100.00;99611.22;5182975;28;20057;-49
2023/08/02 02:12:09;;;;;;;4.80;1.33;;;17.80;99.90;;;18.11;100.00;99614.69;5182494;28;20049;-49
2023/08/02 02:14:42;;;;;;;2.75;1.63;;;17.80;99.90;;;18.10;100.00;99617.38;5183034;28;20050;-50
2023/08/02 02:17:14;;;;;;;1.88;1.30;;;17.80;99.90;;;18.07;100.00;99613.03;5182904;28;20416;-50
2023/08/02 02:19:47;;;;;;;1.90;1.25;;;17.80;99.90;;;18.01;100.00;99609.59;5182784;28;20050;-50
2023/08/02 02:22:20;;;;;;;2.38;1.13;;;17.70;99.90;;;17.96;100.00;99607.03;5182736;28;20053;-51
2023/08/02 02:24:53;;;;;;;2.78;1.35;;;17.70;99.90;;;17.87;100.00;99599.25;5201992;28;20049;-50
2023/08/02 02:27:28;;;;;;;2.25;1.10;;;17.60;99.90;;;17.81;100.00;99586.16;5195282;28;20049;-50
2023/08/02 02:30:01;;;;;;;2.97;1.23;;;17.60;99.90;;;17.77;100.00;99576.53;5186842;28;20163;-50
2023/08/02 02:32:33;;;;;;;1.63;1.10;;;17.50;99.90;;;17.71;100.00;99561.69;5186379;28;20418;-50
2023/08/02 02:35:07;;;;;;;2.85;1.00;;;17.50;99.90;;;17.68;100.00;99555.56;5202814;28;20441;-49
2023/08/02 02:37:41;;;;;;;2.88;1.30;;;17.40;99.90;;;17.62;100.00;99552.13;5184987;28;20038;-50
2023/08/02 02:40:14;;;;;;;2.53;1.35;;;17.40;99.90;;;17.55;100.00;99560.13;5182385;28;20050;-50
2023/08/02 02:42:46;;;;;;;2.08;1.00;;;17.40;99.90;;;17.52;100.00;99555.75;5190297;28;20125;-51
2023/08/02 02:45:18;;;;;;;3.25;1.23;;;17.30;99.90;;;17.46;100.00;99539.16;5197172;28;20041;-49
2023/08/02 02:47:51;;;;;;;1.92;1.05;;;17.30;99.90;;;17.36;100.00;99533.16;5194235;28;20089;-49
2023/08/02 02:50:23;;;;;;;3.10;1.23;;;17.20;99.90;;;17.27;100.00;99522.69;5187332;28;20065;-49
2023/08/02 02:52:57;;;;;;;2.90;1.05;;;17.10;99.90;;;17.21;100.00;99512.25;5201486;28;20045;-50
2023/08/02 02:55:29;;;;;;;2.88;1.25;;;17.10;99.90;;;17.13;100.00;99508.84;5194519;28;20048;-50
2023/08/02 02:58:02;;;;;;;3.35;1.23;;;17.00;99.90;;;17.08;100.00;99512.44;5185826;28;20045;-49
2023/08/02 03:00:34;;;;;;;2.20;1.15;;;16.90;99.90;;;17.01;100.00;99504.59;5202147;28;20057;-50
2023/08/02 03:03:06;;;;;;;3.03;1.35;;;16.90;99.90;;;16.99;100.00;99499.34;5202069;28;20095;-51
2023/08/02 03:05:39;;;;;;;2.90;1.40;;;16.90;99.90;;;16.98;100.00;99497.63;5193803;28;20053;-50
2023/08/02 03:08:13;;;;;;;2.88;1.40;;;16.90;99.90;;;16.98;100.00;99479.19;5188590;28;20050;-50
2023/08/02 03:10:45;;;;;;;4.05;1.73;;;16.90;99.90;;;16.97;100.00;99474.81;5200368;28;20258;-51
2023/08/02 03:13:18;;;;;;;2.35;1.13;;;16.90;99.90;;;16.95;100.00;99462.53;5193901;28;20061;-48
2023/08/02 03:15:50;;;;;;;3.90;1.35;;;16.80;99.90;;;16.93;100.00;99459.94;5201987;28;20064;-49
2023/08/02 03:18:23;;;;;;;2.33;1.20;;;16.80;99.90;;;16.95;100.00;99467.81;5202069;28;20045;-50
2023/08/02 03:20:55;;;;;;;4.68;1.40;;;16.80;99.90;;;16.97;100.00;99481.84;5190619;28;20049;-51
2023/08/02 03:23:34;;;;;;;2.20;1.20;;;16.80;99.90;;;16.94;100.00;99464.31;5197476;28;20053;-51
2023/08/02 03:26:07;;;;;;;3.15;1.05;;;16.80;99.90;;;16.87;100.00;99451.25;5193911;28;20047;-49
2023/08/02 03:28:39;;;;;;;3.20;1.23;;;16.80;99.90;;;16.81;100.00;99439.03;5201629;28;20042;-49
2023/08/02 03:31:11;;;;;;;3.03;1.60;;;16.70;99.90;;;16.79;100.00;99451.34;5188454;28;20534;-50
2023/08/02 03:33:47;;;;;;;2.72;1.73;;;16.70;99.90;;;16.78;100.00;99462.78;5190525;28;20156;-52
2023/08/02 03:36:19;;;;;;;3.33;1.60;;;16.60;99.90;;;16.74;100.00;99456.66;5201498;28;20033;-50
2023/08/02 03:38:53;;;;;;;2.28;1.38;;;16.70;99.90;;;16.75;100.00;99445.22;5202746;28;20155;-52
2023/08/02 03:41:26;;;;;;;4.05;1.48;;;16.60;99.90;;;16.77;100.00;99440.84;5201387;28;20088;-51
2023/08/02 03:43:58;;;;;;;3.15;1.27;;;16.70;99.90;;;16.77;100.00;99442.63;5201358;28;20068;-49
2023/08/02 03:46:30;;;;;;;2.83;1.30;;;16.70;99.90;;;16.77;100.00;99447.88;5201367;28;20050;-52
2023/08/02 03:49:03;;;;;;;3.00;1.70;;;16.70;99.90;;;16.81;100.00;99436.41;5197909;28;20462;-51
2023/08/02 03:51:35;;;;;;;2.80;1.75;;;16.70;99.90;;;16.84;100.00;99441.66;5180844;28;20049;-48
2023/08/02 03:54:09;;;;;;;1.80;1.30;;;16.70;99.90;;;16.86;100.00;99431.09;5193295;28;20053;-49
2023/08/02 03:56:41;;;;;;;3.22;1.48;;;16.70;99.90;;;16.88;100.00;99409.13;5192850;28;20055;-49
2023/08/02 03:59:14;;;;;;;4.30;1.48;;;16.70;99.90;;;16.90;100.00;99386.31;5192552;28;20573;-49
2023/08/02 04:01:46;;;;;;;3.45;1.60;;;16.70;99.90;;;16.90;100.00;99393.34;5192585;28;20049;-50
2023/08/02 04:04:18;;;;;;;3.95;1.27;;;16.70;99.90;;;16.87;100.00;99388.97;5201370;28;20057;-50
2023/08/02 04:06:51;;;;;;;2.40;1.50;;;16.70;99.90;;;16.89;100.00;99389.84;5182967;28;20157;-51
2023/08/02 04:09:25;;;;;;;2.97;1.60;;;16.70;99.90;;;16.90;100.00;99404.72;5180816;28;20042;-50
2023/08/02 04:11:57;;;;;;;1.98;1.15;;;16.70;99.90;;;16.91;100.00;99405.59;5183405;28;20063;-50
2023/08/02 04:14:29;;;;;;;3.53;1.38;;;16.70;99.90;;;16.87;100.00;99407.38;5185702;28;20096;-50
2023/08/02 04:17:02;;;;;;;5.07;1.52;;;16.70;99.90;;;16.86;100.00;99410.03;5183845;28;20042;-52
2023/08/02 04:19:34;;;;;;;2.42;1.35;;;16.70;99.90;;;16.82;100.00;99403.94;5202369;28;20064;-49
2023/08/02 04:22:07;;;;;;;4.32;1.88;;;16.70;99.90;;;16.80;100.00;99390.81;5180741;28;20416;-51
2023/08/02 04:24:40;;;;;;;4.03;1.73;;;16.60;99.90;;;16.80;100.00;99395.19;5189001;28;20053;-49
2023/08/02 04:27:13;;;;;;;3.50;1.55;;;16.60;99.90;;;16.81;100.00;99391.66;5192770;28;20502;-49
2023/08/02 04:29:45;;;;;;;4.28;1.60;;;16.70;99.90;;;16.82;100.00;99388.13;5201080;28;20084;-50
2023/08/02 04:32:17;;;;;;;5.13;1.85;;;16.70;99.90;;;16.87;100.00;99385.47;5200945;28;20440;-51
2023/08/02 04:34:50;;;;;;;3.22;1.58;;;16.70;99.90;;;16.90;100.00;99380.16;5202860;28;20072;-51
2023/08/02 04:37:22;;;;;;;4.13;1.83;;;16.70;99.90;;;16.88;100.00;99382.81;5199214;28;20049;-51
2023/08/02 04:39:56;;;;;;;2.85;1.80;;;16.70;99.90;;;16.86;100.00;99363.53;5184518;28;20057;-50
2023/08/02 04:42:28;;;;;;;3.60;1.75;;;16.70;99.90;;;16.87;100.00;99344.22;5191075;28;20072;-48
2023/08/02 04:45:01;;;;;;;3.20;1.95;;;16.70;99.90;;;16.87;100.00;99338.09;5193479;28;20053;-49
2023/08/02 04:47:33;;;;;;;5.10;1.95;;;16.70;99.90;;;16.81;100.00;99333.78;5184455;28;20042;-50
2023/08/02 04:50:07;;;;;;;6.35;2.22;;;16.70;99.90;;;16.78;100.00;99324.19;5203853;28;20083;-49
2023/08/02 04:52:39;;;;;;;6.10;2.22;;;16.70;99.90;;;16.79;100.00;99325.03;5196784;28;20050;-49
2023/08/02 04:55:13;;;;;;;4.60;2.05;;;16.60;99.90;;;16.78;100.00;99308.38;5185748;28;20046;-47
2023/08/02 04:57:49;;;;;;;4.03;1.83;;;16.70;99.90;;;16.78;100.00;99304.88;5192767;28;20415;-50
2023/08/02 05:00:22;;;;;;;5.60;1.80;;;16.60;99.90;;;16.79;100.00;99301.38;5190658;28;20132;-51
2023/08/02 05:02:54;;;;;;;2.50;1.52;;;16.60;99.90;;;16.79;100.00;99282.94;5202620;28;20061;-50
2023/08/02 05:05:26;;;;;;;4.10;1.92;;;16.60;99.90;;;16.81;100.00;99270.63;5190047;28;20080;-49
2023/08/02 05:08:00;;;;;;;4.05;1.70;;;16.60;99.90;;;16.84;100.00;99259.19;5194469;28;20387;-50
2023/08/02 05:10:33;;;;;;;4.18;2.03;;;16.70;99.90;;;16.86;100.00;99254.78;5204091;28;20041;-49
2023/08/02 05:13:06;;;;;;;5.45;2.03;;;16.70;99.90;;;16.84;100.00;99233.75;5196032;28;20046;-51
2023/08/02 05:15:38;;;;;;;4.68;2.08;;;16.70;99.90;;;16.85;100.00;99224.97;5204185;28;20052;-48
2023/08/02 05:18:11;;;;;;;3.70;2.03;;;16.70;99.90;;;16.85;100.00;99224.09;5204419;28;20042;-49
2023/08/02 05:20:43;;;;;;;6.13;2.50;;;16.70;99.90;;;16.85;100.00;99224.97;5204058;28;20553;-51
2023/08/02 05:23:16;;;;;;;3.75;2.25;;;16.70;99.90;;;16.85;100.00;99218.84;5204364;28;20513;-50
2023/08/02 05:25:49;;;;;;;4.85;2.10;;;16.70;99.90;;;16.86;100.00;99203.00;5204242;28;20049;-51
2023/08/02 05:28:22;;;;;;;3.65;1.77;;;16.80;99.90;;;16.87;100.00;99212.66;5204023;28;20414;-50
2023/08/02 05:30:54;;;;;;;4.45;2.00;;;16.70;99.90;;;16.89;100.00;99221.41;5203809;28;20426;-51
2023/08/02 05:33:26;;;;;;;3.45;1.92;;;16.70;99.90;;;16.94;100.00;99224.81;5189913;28;20042;-50
2023/08/02 05:36:02;;;;;;;3.78;2.08;;;16.80;99.90;;;16.99;100.00;99216.84;5193764;28;20045;-50
2023/08/02 05:38:35;;;;;;;3.80;2.28;;;16.80;99.90;;;17.03;100.00;99221.19;5203835;28;20045;-51
2023/08/02 05:41:09;;;;;;;5.38;2.28;;;16.80;99.90;;;17.06;100.00;99216.72;5203664;28;20053;-48
2023/08/02 05:43:44;;;;;;;3.83;1.90;;;16.90;99.90;;;17.05;100.00;99201.81;5187978;28;20058;-50
2023/08/02 05:46:16;;;;;;;2.67;1.77;;;16.90;99.90;;;17.09;100.00;99194.75;5187121;28;20045;-49
2023/08/02 05:48:50;;;;;;;5.72;2.33;;;16.90;99.90;;;17.08;100.00;99171.94;5194984;28;20038;-50
2023/08/02 05:51:22;;;;;;;4.15;2.03;;;16.90;99.90;;;17.09;100.00;99179.81;5203449;28;20049;-50
2023/08/02 05:53:57;;;;;;;4.43;2.38;;;16.90;99.90;;;17.10;100.00;99178.06;5203506;28;20056;-50
2023/08/02 05:56:31;;;;;;;4.90;2.40;;;16.90;99.90;;;17.16;100.00;99185.00;5197502;28;20041;-49
2023/08/02 05:59:03;;;;;;;3.67;1.92;;;17.00;99.90;;;17.17;100.00;99173.56;5193262;28;20117;-51
2023/08/02 06:01:36;;;;;;;3.60;2.15;;;17.00;99.90;;;17.18;100.00;99176.16;5188370;28;20042;-48
2023/08/02 06:04:08;;;;;;;4.65;2.08;;;17.00;99.90;;;17.19;100.00;99177.03;5194064;28;20050;-48
2023/08/02 06:06:41;;;;;;;3.92;2.70;;;17.00;99.90;;;17.21;100.00;99180.50;5202707;28;20033;-50
2023/08/02 06:09:14;;;;;;;3.13;1.88;;;17.00;99.90;;;17.23;100.00;99174.31;5194769;28;20422;-50
2023/08/02 06:11:47;;;;;;;7.65;2.33;;;17.00;99.90;;;17.21;100.00;99172.59;5204914;28;20103;-50
2023/08/02 06:14:20;;;;;;;4.78;2.30;;;17.10;99.90;;;17.19;100.00;99161.22;5198822;28;20050;-51
2023/08/02 06:16:52;;;;;;;5.68;2.47;;;17.10;99.90;;;17.16;100.00;99150.75;5182572;28;20134;-51
2023/08/02 06:19:24;;;;;;;6.05;2.63;;;17.00;99.90;;;17.16;100.00;99158.66;5182697;28;20049;-48
2023/08/02 06:22:00;;;;;;;4.97;2.22;;;17.00;99.90;;;17.12;100.00;99149.06;5182674;28;20052;-48
2023/08/02 06:24:32;;;;;;;5.60;2.22;;;17.00;99.90;;;17.14;100.00;99139.38;5182496;28;20422;-51
2023/08/02 06:27:06;;;;;;;5.07;2.17;;;17.00;99.90;;;17.15;100.00;99133.19;5190497;28;20097;-51
2023/08/02 06:29:39;;;;;;;6.50;2.50;;;17.00;99.90;;;17.18;100.00;99135.81;5182356;28;20061;-51
2023/08/02 06:32:11;;;;;;;3.92;2.15;;;17.00;99.90;;;17.20;100.00;99128.72;5182469;28;20046;-50
2023/08/02 06:34:43;;;;;;;4.32;2.42;;;17.00;99.90;;;17.21;100.00;99133.97;5182408;28;20061;-47
2023/08/02 06:37:16;;;;;;;6.55;2.15;;;17.00;99.90;;;17.21;100.00;99117.31;5182291;28;20503;-48
2023/08/02 06:39:51;;;;;;;3.65;2.13;;;17.10;99.90;;;17.22;100.00;99119.06;5190325;28;20053;-49
2023/08/02 06:42:25;;;;;;;4.07;1.95;;;17.00;99.90;;;17.21;100.00;99112.03;5202588;28;20060;-47
2023/08/02 06:44:57;;;;;;;5.50;2.40;;;17.10;99.90;;;17.16;100.00;99090.22;5202688;28;20057;-49
2023/08/02 06:47:30;;;;;;;4.18;2.33;;;17.00;99.90;;;17.09;100.00;99087.69;5202614;28;20056;-47
2023/08/02 06:50:02;;;;;;;5.35;2.72;;;17.00;99.90;;;17.04;100.00;99079.00;5192579;28;20606;-49
2023/08/02 06:52:35;;;;;;;4.75;2.15;;;16.90;99.90;;;17.01;100.00;99068.53;5196560;28;20042;-50
2023/08/02 06:55:08;;;;;;;4.97;2.42;;;16.90;99.90;;;17.00;100.00;99048.38;5183924;28;20416;-49
2023/08/02 06:57:42;;;;;;;6.05;2.33;;;16.90;99.90;;;17.00;100.00;99043.09;5181078;28;20069;-50
2023/08/02 07:00:15;;;;;;;4.70;2.28;;;16.90;99.90;;;16.99;100.00;99038.75;5193429;28;20056;-48
2023/08/02 07:02:47;;;;;;;4.47;2.45;;;16.90;99.90;;;17.08;100.00;99033.31;5202187;28;20065;-49
2023/08/02 07:05:23;;;;;;;5.82;2.67;;;17.00;99.90;;;17.13;100.00;99042.88;5202085;28;20511;-49
2023/08/02 07:07:56;;;;;;;4.43;2.33;;;17.00;99.90;;;17.19;100.00;99029.59;5202223;28;20146;-47
2023/08/02 07:10:30;;;;;;;3.65;2.22;;;17.00;99.90;;;17.22;100.00;99034.81;5202215;28;20138;-48
2023/08/02 07:13:04;;;;;;;5.38;2.42;;;17.10;99.90;;;17.24;100.00;99020.72;5202052;28;20049;-49
2023/08/02 07:15:36;;;;;;;5.22;2.65;;;17.10;99.90;;;17.27;100.00;99012.72;5202238;28;20403;-50
2023/08/02 07:18:08;;;;;;;5.97;2.97;;;17.10;99.90;;;17.32;100.00;98996.84;5202069;28;20045;-48
2023/08/02 07:20:41;;;;;;;6.05;2.63;;;17.10;99.90;;;17.35;100.00;99002.06;5195209;28;20052;-46
2023/08/02 07:23:13;;;;;;;5.43;3.17;;;17.10;99.90;;;17.45;100.00;98985.16;5181684;28;20537;-49
2023/08/02 07:25:46;;;;;;;6.13;2.72;;;17.20;99.90;;;17.59;100.00;98990.09;5188834;28;20049;-49
2023/08/02 07:28:23;;;;;;;6.68;3.35;;;17.30;99.90;;;17.71;100.00;98976.69;5189997;28;20045;-48
2023/08/02 07:31:07;;;;;;;4.80;2.90;;;17.40;99.90;;;17.80;100.00;98965.06;5189745;28;20049;-47
2023/08/02 07:33:40;;;;;;;5.38;2.90;;;17.50;99.90;;;17.86;100.00;98949.97;5187249;28;20050;-47
2023/08/02 07:36:18;;;;;;;6.97;3.10;;;17.60;99.90;;;17.92;100.00;98948.97;5181298;28;20073;-49
2023/08/02 07:38:50;;;;;;;6.47;3.33;;;17.70;99.90;;;18.04;100.00;98948.66;5181157;28;20053;-48
2023/08/02 07:41:22;;;;;;;5.53;3.03;;;17.80;99.90;;;18.14;100.00;98950.19;5181116;28;20054;-47
2023/08/02 07:43:56;;;;;;;5.93;3.17;;;17.80;99.90;;;18.13;100.00;98948.47;5197615;28;20072;-49
2023/08/02 07:46:28;;;;;;;8.07;3.10;;;17.80;99.90;;;18.13;100.00;98931.78;5188913;28;20511;-48
2023/08/02 07:49:01;;;;;;;5.78;2.67;;;17.90;99.90;;;18.18;100.00;98930.72;5190435;28;20095;-49
2023/08/02 07:51:33;;;;;;;6.63;2.70;;;17.90;99.90;;;18.23;100.00;98920.06;5201680;28;20057;-49
2023/08/02 07:54:05;;;;;;;4.68;2.42;;;17.90;99.90;;;18.26;100.00;98900.69;5201429;28;20515;-49
2023/08/02 07:56:38;;;;;;;4.82;2.38;;;18.00;99.90;;;18.38;100.00;98905.59;5200338;28;20056;-48
2023/08/02 07:59:12;;;;;;;3.65;2.08;;;18.10;99.90;;;18.51;100.00;98885.91;5198767;28;20049;-46
2023/08/02 08:01:44;;;;;;;3.55;2.03;;;18.10;99.90;;;18.77;100.00;98893.13;5199735;28;20057;-49
2023/08/02 08:04:20;;;;;;;6.25;2.05;;;18.30;99.90;;;18.99;100.00;98882.81;5199911;28;20042;-47
2023/08/02 08:06:53;;;;;;;2.63;1.50;;;18.50;99.90;;;19.08;100.00;98873.75;5200987;28;20038;-50
2023/08/02 08:09:26;;;;;;;3.63;1.50;;;18.60;99.90;;;19.10;100.00;98874.56;5196696;28;20046;-50
2023/08/02 08:12:04;;;;;;;2.90;1.52;;;18.70;99.90;;;19.11;100.00;98886.88;5189058;28;20053;-50
2023/08/02 08:14:39;;;;;;;1.60;1.17;;;18.70;99.90;;;19.24;100.00;98864.47;5196276;28;20054;-50
2023/08/02 08:17:11;;;;;;;2.90;1.88;;;18.80;99.90;;;19.41;100.00;98874.50;5199164;28;20065;-50
2023/08/02 08:19:44;;;;;;;2.80;1.13;;;18.90;99.90;;;19.50;100.00;98890.06;5200964;28;20052;-50
2023/08/02 08:22:21;;;;;;;1.40;1.23;;;19.10;99.90;;;19.56;100.00;98889.88;5192146;28;20211;-49
2023/08/02 08:24:53;;;;;;;1.63;0.93;;;19.10;99.90;;;19.62;100.00;98868.53;5195308;28;20095;-51
2023/08/02 08:27:26;;;;;;;1.23;0.98;;;19.20;99.90;;;19.79;100.00;98882.09;5201123;28;20049;-51
2023/08/02 08:29:59;;;;;;;1.63;1.13;;;19.20;99.90;;;19.85;100.00;98869.59;5201154;28;20132;-52
2023/08/02 08:32:32;;;;;;;2.55;1.13;;;19.30;99.90;;;19.82;100.00;98874.94;5201348;28;20045;-50
2023/08/02 08:35:05;;;;;;;2.85;1.15;;;19.30;99.90;;;19.73;100.00;98871.72;5201508;28;20426;-51
2023/08/02 08:37:38;;;;;;;1.60;1.10;;;19.30;99.90;;;19.64;100.00;98877.31;5201273;28;20099;-49
2023/08/02 08:40:17;;;;;;;2.30;1.17;;;19.30;99.90;;;19.55;100.00;98874.91;5194911;28;20402;-50
2023/08/02 08:42:51;;;;;;;1.58;1.30;;;19.20;99.90;;;19.55;100.00;98887.25;5201025;28;20073;-51
2023/08/02 08:45:26;;;;;;;2.45;1.10;;;19.20;99.90;;;19.54;100.00;98875.81;5201284;28;20049;-51
2023/08/02 08:47:58;;;;;;;2.72;1.20;;;19.20;99.90;;;19.48;100.00;98868.97;5201111;28;20041;-49
2023/08/02 08:50:32;;;;;;;1.55;1.00;;;19.20;99.90;;;19.32;100.00;98877.44;5200708;28;20049;-50
2023/08/02 08:53:08;;;;;;;1.77;1.10;;;19.00;99.90;;;19.18;100.00;98868.16;5200860;28;20038;-49
2023/08/02 08:55:41;;;;;;;2.60;0.93;;;18.90;99.90;;;19.08;100.00;98842.94;5200682;28;20049;-47
2023/08/02 08:58:14;;;;;;;1.85;1.00;;;18.80;99.90;;;19.01;100.00;98848.44;5200773;28;20065;-51
2023/08/02 09:00:49;;;;;;;2.33;0.82;;;18.80;99.90;;;18.96;100.00;98854.72;5200965;28;20553;-46
2023/08/02 09:03:22;;;;;;;1.58;0.85;;;18.70;99.90;;;18.92;100.00;98860.16;5189659;28;20693;-50
2023/08/02 09:05:54;;;;;;;1.48;1.00;;;18.70;99.90;;;18.91;100.00;98864.56;5180402;28;20045;-49
2023/08/02 09:08:41;;;;;;;1.70;1.08;;;18.60;99.90;;;18.84;100.00;98851.56;5180703;28;20046;-48
2023/08/02 09:11:15;;;;;;;1.17;0.88;;;18.60;99.90;;;18.77;100.00;98821.00;5180318;28;20485;-50
2023/08/02 09:13:47;;;;;;;1.13;0.75;;;18.60;99.90;;;18.72;100.00;98825.56;5180769;28;20054;-48
2023/08/02 09:16:21;;;;;;;1.15;0.73;;;18.50;99.90;;;18.65;100.00;98811.66;5196917;28;20572;-48
2023/08/02 09:18:54;;;;;;;0.50;0.50;;;18.40;99.90;;;18.58;100.00;98792.50;5199280;28;20049;-50
2023/08/02 09:21:26;;;;;;;0.75;0.70;;;18.40;99.90;;;18.51;100.00;98801.47;5199607;28;20045;-50
2023/08/02 09:24:01;;;;;;;1.25;0.63;;;18.30;99.90;;;18.48;100.00;98798.94;5202795;28;20057;-51
2023/08/02 09:26:35;;;;;;;0.95;0.68;;;18.30;99.90;;;18.51;100.00;98797.97;5195461;28;20057;-51
2023/08/02 09:29:09;;;;;;;1.33;0.73;;;18.30;99.90;;;18.55;100.00;98797.00;5202101;28;20057;-51
2023/08/02 09:31:43;;;;;;;0.77;0.73;;;18.30;99.90;;;18.58;100.00;98784.59;5202640;28;20041;-49
2023/08/02 09:34:15;;;;;;;1.38;0.82;;;18.30;99.90;;;18.61;100.00;98794.19;5202550;28;20049;-48
2023/08/02 09:36:48;;;;;;;0.98;0.63;;;18.30;99.90;;;18.64;100.00;98781.75;5202908;28;20068;-48
2023/08/02 09:39:20;;;;;;;0.40;0.40;;;18.30;99.90;;;18.73;100.00;98766.59;5192923;28;20057;-49
2023/08/02 09:41:53;;;;;;;1.33;0.60;;;18.40;99.90;;;18.82;100.00;98766.31;5189461;28;20058;-49
2023/08/02 09:44:25;;;;;;;0.88;0.80;;;18.50;99.90;;;18.98;100.00;98771.06;5217502;28;20045;-50
2023/08/02 09:47:09;;;;;;;1.45;0.60;;;18.60;99.90;;;19.08;100.00;98769.00;5202791;28;20033;-49
2023/08/02 09:49:42;;;;;;;0.60;0.60;;;18.70;99.90;;;19.16;100.00;98772.25;5194981;28;20076;-54
2023/08/02 09:52:27;;;;;;;0.38;0.32;;;18.80;99.90;;;19.28;100.00;98772.78;5151868;28;20045;-52
2023/08/02 09:55:00;;;;;;;1.02;0.50;;;18.90;99.90;;;19.29;100.00;98756.88;5155812;28;20045;-52
2023/08/02 09:57:34;;;;;;;0.55;0.52;;;18.90;99.90;;;19.29;100.00;98763.94;5194969;28;20064;-53
2023/08/02 10:00:10;;;;;;;1.02;0.40;;;18.90;99.90;;;19.33;100.00;98760.28;5202516;28;20053;-52
2023/08/02 10:02:49;;;;;;;0.43;0.40;;;19.00;99.90;;;19.39;100.00;98754.81;5197775;28;20503;-52
2023/08/02 10:05:22;;;;;;;1.75;0.30;;;19.00;99.90;;;19.45;100.00;98749.31;5202983;28;20053;-52
2023/08/02 10:07:55;;;;;;;0.50;0.50;;;19.10;99.90;;;19.56;100.00;98741.00;5187691;28;20062;-52
2023/08/02 10:10:31;;;;;;;0.65;0.30;;;19.20;99.90;;;19.65;100.00;98741.59;5200569;28;20049;-52
2023/08/02 10:13:09;;;;;;;0.50;0.30;;;19.20;99.90;;;19.76;100.00;98749.16;5202065;28;20053;-52
2023/08/02 10:15:43;;;;;;;1.02;0.35;;;19.30;99.90;;;19.82;100.00;98738.34;5182122;28;20050;-52
2023/08/02 10:18:21;;;;;;;0.50;0.32;;;19.40;99.90;;;19.93;100.00;98748.56;5199700;28;20046;-52
2023/08/02 10:20:55;;;;;;;0.30;0.30;;;19.50;99.90;;;19.99;100.00;98732.47;5201138;28;20408;-53
2023/08/02 10:23:28;;;;;;;1.10;0.35;;;19.50;99.90;;;20.00;100.00;98729.78;5201225;28;20442;-52
2023/08/02 10:26:01;;;;;;;1.23;0.30;;;19.60;99.90;;;20.07;100.00;98733.06;5202344;28;20072;-51
2023/08/02 10:28:37;;;;;;;0.30;0.30;;;19.60;99.90;;;20.12;100.00;98723.19;5191741;28;20081;-52
2023/08/02 10:31:10;;;;;;;0.77;0.32;;;19.70;99.90;;;20.26;100.00;98709.44;5201745;28;20049;-52
2023/08/02 10:33:44;;;;;;;1.17;0.32;;;19.80;99.90;;;20.47;100.00;98710.44;5203540;28;20084;-52
2023/08/02 10:36:20;;;;;;;0.45;0.40;;;20.00;99.90;;;20.88;100.00;98698.25;5201438;28;20053;-54
2023/08/02 10:38:54;;;;;;;0.75;0.40;;;20.30;99.90;;;21.45;100.00;98690.59;5201049;28;20100;-55